Time;durP1;ratioP1;P1;durP2;ratioP2;P2;SDS_P1;SDS_P2;PMS_P1;PMS_P2;Temp;Humidity;BMP_temperature;BMP_pressure;BME280_temperature;BME280_humidity;BME280_pressure;Samples;Min_cycle;Max_cycle;Signal;HPM_P1;HPM_P2
2022/08/08 00:00:15;;;;;;;6.80;6.20;;;14.10;99.90;;;;;;5034304;28;20038;-23
2022/08/08 00:03:14;;;;;;;7.10;6.00;;;14.00;99.90;;;;;;5033653;28;20041;-23
2022/08/08 00:06:11;;;;;;;6.80;6.20;;;14.00;99.90;;;;;;5034313;28;20045;-23
2022/08/08 00:08:57;;;;;;;7.85;6.78;;;14.00;99.90;;;;;;5033325;28;20041;-23
2022/08/08 00:11:41;;;;;;;6.97;6.10;;;13.90;99.90;;;;;;5017047;28;20077;-23
2022/08/08 00:14:43;;;;;;;6.57;5.97;;;13.90;99.90;;;;;;5033933;28;20037;-23
2022/08/08 00:17:27;;;;;;;6.70;6.10;;;13.90;99.90;;;;;;5033265;28;20038;-23
2022/08/08 00:20:04;;;;;;;7.28;6.57;;;13.80;99.90;;;;;;5033246;28;20037;-23
2022/08/08 00:22:40;;;;;;;8.38;7.13;;;13.70;99.90;;;;;;5034902;28;20510;-23
2022/08/08 00:25:37;;;;;;;8.07;6.32;;;13.70;99.90;;;;;;5033483;28;20041;-23
2022/08/08 00:28:07;;;;;;;7.55;6.20;;;13.60;99.90;;;;;;5021887;28;20571;-23
2022/08/08 00:30:38;;;;;;;7.28;6.18;;;13.60;99.90;;;;;;5033401;28;20109;-23
2022/08/08 00:33:15;;;;;;;7.28;6.57;;;13.60;99.90;;;;;;5033394;28;20093;-23
2022/08/08 00:36:01;;;;;;;6.70;6.05;;;13.50;99.90;;;;;;5033665;28;20029;-23
2022/08/08 00:38:49;;;;;;;7.28;6.63;;;13.50;99.90;;;;;;5033714;28;20038;-23
2022/08/08 00:41:42;;;;;;;6.90;5.93;;;13.40;99.90;;;;;;5033664;28;20394;-23
2022/08/08 00:44:11;;;;;;;7.93;5.63;;;13.40;99.90;;;;;;5033047;28;20060;-23
2022/08/08 00:47:06;;;;;;;6.53;5.93;;;13.40;99.90;;;;;;5017296;28;20038;-23
2022/08/08 00:50:06;;;;;;;6.20;5.65;;;13.40;99.90;;;;;;5033226;28;20096;-23
2022/08/08 00:53:02;;;;;;;7.95;6.60;;;13.40;99.90;;;;;;5033180;28;20103;-23
2022/08/08 00:56:05;;;;;;;7.82;6.57;;;13.40;99.90;;;;;;5012276;28;20053;-24
2022/08/08 00:59:05;;;;;;;7.20;6.38;;;13.40;99.90;;;;;;5033473;28;20398;-23
2022/08/08 01:01:37;;;;;;;7.05;6.35;;;13.30;99.90;;;;;;5033580;28;20519;-23
2022/08/08 01:04:24;;;;;;;9.75;7.25;;;13.30;99.90;;;;;;5033001;28;20490;-24
2022/08/08 01:07:11;;;;;;;7.50;6.80;;;13.30;99.90;;;;;;5034159;28;20068;-23
2022/08/08 01:10:05;;;;;;;7.72;6.50;;;13.20;99.90;;;;;;5033469;28;20037;-23
2022/08/08 01:12:46;;;;;;;7.57;6.75;;;13.20;99.90;;;;;;5020816;28;20063;-23
2022/08/08 01:15:58;;;;;;;6.78;6.18;;;13.20;99.90;;;;;;5037023;28;20045;-23
2022/08/08 01:18:33;;;;;;;8.85;7.15;;;13.20;99.90;;;;;;5036266;28;20033;-23
2022/08/08 01:21:12;;;;;;;6.95;6.20;;;13.10;99.90;;;;;;5036603;28;20046;-23
2022/08/08 01:24:15;;;;;;;7.72;6.45;;;13.10;99.90;;;;;;5036850;28;20053;-23
2022/08/08 01:27:07;;;;;;;7.88;7.07;;;13.00;99.90;;;;;;5036426;28;20041;-23
2022/08/08 01:30:00;;;;;;;7.00;6.38;;;13.00;99.90;;;;;;5036594;28;20080;-23
2022/08/08 01:32:48;;;;;;;10.20;7.30;;;13.00;99.90;;;;;;5037001;28;20486;-23
2022/08/08 01:35:23;;;;;;;8.20;7.40;;;12.90;99.90;;;;;;5036345;28;20482;-23
2022/08/08 01:37:51;;;;;;;7.63;6.82;;;12.90;99.90;;;;;;5029925;28;20041;-24
2022/08/08 01:40:32;;;;;;;7.07;6.30;;;12.90;99.90;;;;;;5032057;28;20038;-24
2022/08/08 01:43:29;;;;;;;8.60;6.97;;;12.80;99.90;;;;;;5042718;28;20038;-24
2022/08/08 01:46:15;;;;;;;7.47;6.53;;;12.80;99.90;;;;;;5024432;28;20073;-24
2022/08/08 01:49:06;;;;;;;9.02;6.88;;;12.80;99.90;;;;;;5016048;28;20040;-24
2022/08/08 01:51:34;;;;;;;7.65;6.72;;;12.70;99.90;;;;;;5045808;28;20044;-24
2022/08/08 01:54:33;;;;;;;7.90;7.18;;;12.70;99.90;;;;;;5029846;28;20034;-24
2022/08/08 01:57:23;;;;;;;7.25;6.30;;;12.70;99.90;;;;;;5027613;28;20042;-24
2022/08/08 02:00:17;;;;;;;7.75;6.68;;;12.70;99.90;;;;;;5045786;28;20088;-24
2022/08/08 02:02:58;;;;;;;6.85;5.88;;;12.70;99.90;;;;;;5027276;28;20045;-24
2022/08/08 02:05:53;;;;;;;6.80;6.03;;;12.60;99.90;;;;;;5019963;28;20041;-24
2022/08/08 02:08:52;;;;;;;7.35;6.57;;;12.60;99.90;;;;;;5046658;28;20488;-24
2022/08/08 02:11:30;;;;;;;6.35;5.60;;;12.50;99.90;;;;;;5026788;28;20102;-24
2022/08/08 02:14:11;;;;;;;7.93;6.63;;;12.40;99.90;;;;;;5045659;28;20041;-24
2022/08/08 02:16:48;;;;;;;8.10;5.82;;;12.40;99.90;;;;;;5028837;28;20038;-24
2022/08/08 02:19:19;;;;;;;7.32;6.60;;;12.40;99.90;;;;;;5031159;28;20041;-24
2022/08/08 02:22:32;;;;;;;6.57;5.85;;;12.40;99.90;;;;;;5048144;28;20473;-24
2022/08/08 02:25:19;;;;;;;6.30;5.65;;;12.40;99.90;;;;;;5013408;28;20060;-24
2022/08/08 02:28:04;;;;;;;7.00;6.30;;;12.40;99.90;;;;;;5022714;28;20038;-24
2022/08/08 02:31:00;;;;;;;9.52;6.30;;;12.30;99.90;;;;;;5032209;28;20044;-24
2022/08/08 02:33:53;;;;;;;7.40;6.20;;;12.30;99.90;;;;;;5032341;28;20040;-24
2022/08/08 02:36:52;;;;;;;6.47;5.63;;;12.30;99.90;;;;;;5045875;28;20431;-24
2022/08/08 02:39:50;;;;;;;7.72;6.55;;;12.30;99.90;;;;;;5031329;28;20080;-24
2022/08/08 02:42:41;;;;;;;7.55;6.85;;;12.30;99.90;;;;;;5025195;28;20053;-24
2022/08/08 02:45:25;;;;;;;6.68;6.00;;;12.20;99.90;;;;;;5032505;28;20042;-24
2022/08/08 02:48:17;;;;;;;;;;;12.20;99.90;;;;;;5029417;28;20113;-24
2022/08/08 02:51:24;;;;;;;6.13;5.63;;;12.20;99.90;;;;;;5023128;28;19925;-24
2022/08/08 02:53:50;;;;;;;6.82;6.18;;;12.20;99.90;;;;;;4943319;28;20035;-23
2022/08/08 02:56:37;;;;;;;7.07;6.22;;;12.10;99.90;;;;;;4948324;28;20031;-24
2022/08/08 02:59:36;;;;;;;7.82;7.05;;;12.10;99.90;;;;;;5002650;28;20388;-24
2022/08/08 03:02:35;;;;;;;7.20;6.50;;;12.20;99.90;;;;;;5026316;28;20553;-24
2022/08/08 03:05:38;;;;;;;6.90;6.30;;;12.10;99.90;;;;;;5028229;28;20092;-24
2022/08/08 03:08:26;;;;;;;8.05;7.25;;;12.10;99.90;;;;;;5032293;28;20124;-24
2022/08/08 03:11:42;;;;;;;7.70;6.90;;;12.10;99.90;;;;;;5019466;28;20049;-24
2022/08/08 03:14:13;;;;;;;8.07;7.22;;;12.10;99.90;;;;;;4994814;28;20155;-24
2022/08/08 03:16:48;;;;;;;6.75;6.15;;;12.10;99.90;;;;;;5026210;28;20042;-24
2022/08/08 03:19:26;;;;;;;8.32;6.25;;;12.10;99.90;;;;;;5025842;28;20075;-24
2022/08/08 03:21:51;;;;;;;7.72;6.93;;;12.10;99.90;;;;;;5035053;28;20073;-24
2022/08/08 03:24:18;;;;;;;7.82;6.97;;;12.00;99.90;;;;;;5029143;28;20085;-24
2022/08/08 03:26:54;;;;;;;7.30;6.57;;;12.00;99.90;;;;;;5023233;28;20041;-24
2022/08/08 03:29:27;;;;;;;8.05;7.25;;;12.00;99.90;;;;;;5042614;28;20526;-24
2022/08/08 03:34:57;;;;;;;8.05;6.60;;;12.00;99.90;;;;;;5026557;28;20072;-24
2022/08/08 03:37:23;;;;;;;7.28;6.57;;;12.00;99.90;;;;;;5013698;28;20045;-24
2022/08/08 03:39:48;;;;;;;7.93;6.50;;;12.00;99.90;;;;;;5028444;28;20723;-24
2022/08/08 03:42:15;;;;;;;7.22;6.38;;;11.90;99.90;;;;;;5021555;28;20048;-24
2022/08/08 03:44:42;;;;;;;8.20;6.93;;;11.90;99.90;;;;;;5024449;28;20045;-24
2022/08/08 03:47:08;;;;;;;8.20;6.57;;;12.00;99.90;;;;;;5028965;28;20403;-24
2022/08/08 03:49:33;;;;;;;7.78;6.88;;;11.90;99.90;;;;;;5022754;28;20033;-24
2022/08/08 03:51:59;;;;;;;7.30;6.57;;;11.90;99.90;;;;;;5029844;28;20503;-24
2022/08/08 03:54:26;;;;;;;8.07;6.05;;;11.90;99.90;;;;;;5021527;28;20091;-24
2022/08/08 03:56:55;;;;;;;7.43;6.72;;;11.90;99.90;;;;;;5044210;28;20095;-24
2022/08/08 03:59:27;;;;;;;10.15;6.50;;;11.90;99.90;;;;;;5032422;28;20100;-23
2022/08/08 04:01:53;;;;;;;7.82;6.70;;;11.90;99.90;;;;;;5028359;28;20045;-24
2022/08/08 04:04:19;;;;;;;7.07;6.45;;;11.90;99.90;;;;;;5040236;28;20057;-24
2022/08/08 04:06:55;;;;;;;9.20;6.90;;;11.90;99.90;;;;;;5034279;28;20037;-23
2022/08/08 04:09:21;;;;;;;7.85;7.15;;;11.90;99.90;;;;;;5022333;28;20056;-24
2022/08/08 04:11:46;;;;;;;7.40;6.72;;;11.80;99.90;;;;;;5032845;28;20367;-24
2022/08/08 04:14:12;;;;;;;7.20;6.50;;;11.80;99.90;;;;;;5020652;28;20037;-24
2022/08/08 04:16:38;;;;;;;7.78;7.00;;;11.80;99.90;;;;;;5030691;28;20394;-24
2022/08/08 04:19:04;;;;;;;8.07;7.28;;;11.80;99.90;;;;;;5043971;28;20038;-24
2022/08/08 04:21:29;;;;;;;9.18;7.28;;;11.80;99.90;;;;;;5032062;28;20137;-24
2022/08/08 04:23:55;;;;;;;7.95;7.15;;;11.80;99.90;;;;;;5046697;28;20045;-23
2022/08/08 04:26:21;;;;;;;7.13;6.45;;;11.80;99.90;;;;;;5030948;28;20088;-23
2022/08/08 04:28:46;;;;;;;8.15;7.35;;;11.80;99.90;;;;;;5024077;28;20041;-24
2022/08/08 04:31:12;;;;;;;8.82;7.25;;;11.80;99.90;;;;;;5045829;28;20134;-24
2022/08/08 04:33:38;;;;;;;7.90;6.78;;;11.80;99.90;;;;;;5021663;28;20061;-24
2022/08/08 04:36:05;;;;;;;8.45;7.60;;;11.90;99.90;;;;;;5044064;28;20393;-24
2022/08/08 04:38:30;;;;;;;7.80;7.00;;;11.90;99.90;;;;;;5025863;28;20037;-24
2022/08/08 04:40:56;;;;;;;8.15;7.15;;;11.90;99.90;;;;;;5042162;28;20037;-24
2022/08/08 04:43:22;;;;;;;7.10;6.40;;;11.90;99.90;;;;;;5027898;28;20787;-24
2022/08/08 04:45:49;;;;;;;8.48;6.97;;;11.90;99.90;;;;;;5038562;28;20041;-24
2022/08/08 04:48:15;;;;;;;7.80;6.68;;;11.90;99.90;;;;;;5036663;28;20036;-24
2022/08/08 04:50:40;;;;;;;9.05;6.30;;;11.90;99.90;;;;;;5032292;28;20045;-24
2022/08/08 04:53:06;;;;;;;8.43;7.28;;;11.90;99.90;;;;;;5030448;28;20398;-23
2022/08/08 04:55:32;;;;;;;7.32;6.57;;;11.90;99.90;;;;;;5026813;28;20041;-23
2022/08/08 04:57:58;;;;;;;6.82;6.13;;;11.90;99.90;;;;;;5025313;28;20088;-24
2022/08/08 05:00:24;;;;;;;7.03;6.25;;;11.90;99.90;;;;;;5032206;28;20041;-24
2022/08/08 05:02:51;;;;;;;8.13;6.43;;;12.00;99.90;;;;;;5020811;28;20073;-24
2022/08/08 05:05:17;;;;;;;7.18;6.47;;;12.00;99.90;;;;;;5033983;28;21002;-24
2022/08/08 05:07:45;;;;;;;6.78;6.18;;;12.00;99.90;;;;;;5021141;28;20419;-24
2022/08/08 05:10:11;;;;;;;7.65;6.18;;;12.00;99.90;;;;;;5027553;28;20042;-24
2022/08/08 05:12:37;;;;;;;7.30;6.60;;;12.00;99.90;;;;;;5026908;28;20092;-24
2022/08/08 05:15:03;;;;;;;7.47;6.78;;;12.10;99.90;;;;;;5027595;28;20037;-24
2022/08/08 05:17:29;;;;;;;7.68;7.00;;;12.10;99.90;;;;;;5024204;28;20380;-24
2022/08/08 05:19:55;;;;;;;7.68;6.97;;;12.10;99.90;;;;;;5027361;28;20080;-24
2022/08/08 05:22:21;;;;;;;7.80;6.63;;;12.10;99.90;;;;;;5030445;28;20048;-24
2022/08/08 05:24:47;;;;;;;7.68;6.88;;;12.20;99.90;;;;;;5025458;28;20073;-24
2022/08/08 05:27:12;;;;;;;8.30;7.40;;;12.20;99.90;;;;;;5012672;28;20047;-24
2022/08/08 05:29:38;;;;;;;8.73;6.68;;;12.30;99.90;;;;;;5031028;28;20041;-24
2022/08/08 05:32:06;;;;;;;9.40;8.40;;;12.40;99.90;;;;;;5028775;28;20033;-24
2022/08/08 05:34:51;;;;;;;9.70;7.68;;;12.40;99.90;;;;;;5028999;28;20491;-24
2022/08/08 05:37:26;;;;;;;8.30;6.82;;;12.50;99.90;;;;;;5042463;28;20054;-24
2022/08/08 05:39:54;;;;;;;9.50;7.38;;;12.60;99.90;;;;;;5026274;28;20129;-24
2022/08/08 05:42:41;;;;;;;9.90;8.60;;;12.60;99.90;;;;;;5025738;28;20048;-24
2022/08/08 05:45:09;;;;;;;9.60;8.70;;;12.80;99.90;;;;;;5007755;28;20041;-24
2022/08/08 05:47:39;;;;;;;12.35;7.95;;;12.80;99.90;;;;;;5028413;28;20259;-24
2022/08/08 05:50:05;;;;;;;9.10;8.10;;;12.90;99.90;;;;;;5029549;28;20479;-24
2022/08/08 05:52:35;;;;;;;7.68;6.88;;;13.00;99.90;;;;;;5030807;28;20041;-24
2022/08/08 05:55:09;;;;;;;8.23;7.45;;;13.10;99.90;;;;;;5028266;28;20084;-24
2022/08/08 05:57:36;;;;;;;;;;;13.20;99.90;;;;;;5031318;28;20041;-24
2022/08/08 06:00:06;;;;;;;9.88;7.70;;;13.30;99.90;;;;;;5014602;28;19924;-24
2022/08/08 06:05:20;;;;;;;9.05;6.20;;;13.40;99.90;;;;;;5031972;28;20529;-24
2022/08/08 06:07:48;;;;;;;10.13;7.00;;;13.50;99.90;;;;;;5030218;28;20038;-24
2022/08/08 06:10:16;;;;;;;9.05;7.32;;;13.60;99.90;;;;;;5051347;28;20091;-24
2022/08/08 06:12:42;;;;;;;9.30;6.40;;;13.80;99.90;;;;;;5016511;28;20045;-24
2022/08/08 06:15:10;;;;;;;9.60;7.43;;;13.90;99.90;;;;;;5030175;28;20055;-24
2022/08/08 06:17:39;;;;;;;8.32;7.47;;;14.00;99.90;;;;;;5029128;28;20368;-24
2022/08/08 06:20:08;;;;;;;10.93;7.18;;;14.10;99.90;;;;;;5030538;28;20077;-24
2022/08/08 06:22:35;;;;;;;6.45;5.85;;;14.20;99.90;;;;;;5025891;28;20410;-24
2022/08/08 06:25:03;;;;;;;9.52;6.10;;;14.40;99.90;;;;;;5036803;28;20111;-24
2022/08/08 06:27:38;;;;;;;11.75;6.65;;;14.40;99.90;;;;;;5025439;28;20041;-24
2022/08/08 06:30:10;;;;;;;6.95;6.28;;;14.50;99.90;;;;;;5024689;28;20493;-24
2022/08/08 06:32:49;;;;;;;7.15;6.25;;;14.60;99.90;;;;;;5024354;28;20045;-24
2022/08/08 06:35:16;;;;;;;6.70;5.55;;;14.80;99.90;;;;;;5029590;28;20037;-24
2022/08/08 06:37:51;;;;;;;8.68;5.93;;;14.90;99.90;;;;;;5036048;28;20052;-24
2022/08/08 06:40:18;;;;;;;7.38;5.80;;;15.00;99.90;;;;;;5015861;28;20048;-25
2022/08/08 06:43:07;;;;;;;9.63;6.80;;;15.10;99.90;;;;;;5028662;28;20120;-24
2022/08/08 06:45:35;;;;;;;9.43;6.13;;;15.20;99.90;;;;;;5040104;28;20121;-24
2022/08/08 06:48:01;;;;;;;10.43;6.25;;;15.30;99.90;;;;;;5022429;28;20487;-24
2022/08/08 06:50:27;;;;;;;7.55;6.78;;;15.50;99.90;;;;;;5028086;28;20099;-24
2022/08/08 06:52:53;;;;;;;8.93;6.60;;;15.60;99.90;;;;;;5044754;28;20042;-24
2022/08/08 06:55:24;;;;;;;10.45;6.88;;;15.70;99.90;;;;;;5029082;28;20505;-24
2022/08/08 06:57:50;;;;;;;9.63;5.75;;;15.80;99.90;;;;;;5027145;28;20394;-25
2022/08/08 07:00:16;;;;;;;7.55;5.70;;;16.00;99.90;;;;;;5030356;28;20116;-25
2022/08/08 07:02:50;;;;;;;10.65;6.00;;;16.10;99.90;;;;;;5027797;28;20069;-25
2022/08/08 07:05:21;;;;;;;10.27;6.10;;;16.20;99.90;;;;;;5024459;28;20148;-25
2022/08/08 07:08:14;;;;;;;6.65;5.15;;;16.30;99.90;;;;;;5046531;28;20037;-24
2022/08/08 07:10:47;;;;;;;10.50;5.47;;;16.50;99.90;;;;;;5021285;28;20410;-24
2022/08/08 07:13:16;;;;;;;7.00;5.27;;;16.70;99.90;;;;;;5034425;28;20037;-25
2022/08/08 07:15:51;;;;;;;9.60;5.03;;;16.80;99.90;;;;;;5030666;28;20111;-24
2022/08/08 07:18:35;;;;;;;6.63;5.00;;;16.90;99.90;;;;;;5046613;28;20407;-24
2022/08/08 07:21:06;;;;;;;6.97;4.15;;;17.10;99.90;;;;;;5028934;28;20038;-25
2022/08/08 07:23:40;;;;;;;7.70;5.43;;;17.30;99.90;;;;;;5027630;28;20044;-25
2022/08/08 07:26:09;;;;;;;9.95;4.97;;;17.40;99.90;;;;;;5026773;28;20056;-25
2022/08/08 07:28:35;;;;;;;7.70;5.32;;;17.50;99.90;;;;;;5041684;28;20046;-25
2022/08/08 07:31:04;;;;;;;8.02;5.18;;;17.70;99.90;;;;;;5025496;28;20099;-25
2022/08/08 07:33:30;;;;;;;8.98;5.18;;;17.80;99.90;;;;;;5023407;28;20081;-25
2022/08/08 07:35:56;;;;;;;7.07;4.80;;;17.90;99.90;;;;;;5026721;28;20037;-25
2022/08/08 07:38:24;;;;;;;6.78;3.72;;;18.00;99.90;;;;;;5020165;28;20490;-25
2022/08/08 07:40:53;;;;;;;7.55;4.07;;;18.20;99.90;;;;;;5007671;28;20037;-25
2022/08/08 07:43:21;;;;;;;5.15;3.60;;;18.40;99.90;;;;;;5031447;28;20112;-25
2022/08/08 07:45:47;;;;;;;6.82;3.40;;;18.60;99.90;;;;;;5031579;28;20482;-25
2022/08/08 07:48:13;;;;;;;7.18;3.35;;;18.70;99.90;;;;;;5042235;28;20120;-24
2022/08/08 07:50:39;;;;;;;7.40;3.10;;;19.00;99.90;;;;;;5042610;28;20072;-25
2022/08/08 07:53:19;;;;;;;8.35;3.00;;;19.30;99.90;;;;;;5027057;28;20049;-25
2022/08/08 07:55:47;;;;;;;6.82;2.90;;;19.50;99.90;;;;;;5024816;28;20407;-27
2022/08/08 07:58:22;;;;;;;4.32;2.92;;;19.70;99.90;;;;;;5032887;28;20048;-27
2022/08/08 08:00:58;;;;;;;5.47;3.03;;;19.80;99.90;;;;;;5022882;28;20034;-27
2022/08/08 08:03:32;;;;;;;6.35;2.72;;;20.00;99.90;;;;;;5025941;28;20099;-27
2022/08/08 08:05:59;;;;;;;4.30;2.67;;;20.10;99.90;;;;;;5026033;28;20036;-27
2022/08/08 08:08:53;;;;;;;5.40;3.00;;;20.00;99.90;;;;;;5022221;28;20041;-27
2022/08/08 08:11:22;;;;;;;3.95;2.65;;;20.20;99.90;;;;;;5018997;28;20063;-27
2022/08/08 08:14:10;;;;;;;5.20;3.00;;;20.40;99.90;;;;;;5024734;28;20125;-27
2022/08/08 08:16:39;;;;;;;4.07;2.65;;;20.70;99.90;;;;;;5028254;28;20041;-27
2022/08/08 08:19:07;;;;;;;3.38;2.38;;;21.00;99.90;;;;;;5032916;28;20048;-27
2022/08/08 08:21:44;;;;;;;4.03;2.42;;;21.40;99.90;;;;;;5026648;28;20379;-27
2022/08/08 08:24:11;;;;;;;3.90;2.10;;;21.60;99.90;;;;;;5032096;28;20458;-27
2022/08/08 08:26:36;;;;;;;5.60;2.47;;;21.70;99.90;;;;;;5027666;28;20116;-27
2022/08/08 08:29:04;;;;;;;3.72;2.15;;;21.80;99.90;;;;;;5030247;28;20116;-27
2022/08/08 08:31:30;;;;;;;4.53;2.17;;;22.10;99.90;;;;;;5031542;28;20088;-27
2022/08/08 08:33:56;;;;;;;4.35;2.20;;;22.30;99.90;;;;;;5026327;28;20044;-27
2022/08/08 08:36:23;;;;;;;7.10;2.47;;;22.50;99.90;;;;;;5029149;28;20148;-27
2022/08/08 08:38:50;;;;;;;5.28;2.38;;;22.70;99.90;;;;;;5025724;28;20049;-27
2022/08/08 08:41:20;;;;;;;4.65;2.45;;;22.80;99.90;;;;;;5029041;28;20080;-27
2022/08/08 08:43:49;;;;;;;5.82;2.40;;;22.90;99.90;;;;;;5020262;28;20038;-27
2022/08/08 08:46:15;;;;;;;4.13;2.25;;;22.90;99.90;;;;;;5042684;28;20140;-27
2022/08/08 08:48:42;;;;;;;3.78;1.90;;;23.00;99.90;;;;;;5028370;28;20076;-27
2022/08/08 08:51:11;;;;;;;4.78;1.95;;;23.10;99.90;;;;;;5030175;28;20084;-27
2022/08/08 08:53:49;;;;;;;4.03;2.00;;;23.30;99.90;;;;;;5026910;28;20087;-27
2022/08/08 08:56:15;;;;;;;3.35;2.08;;;23.40;99.90;;;;;;5030900;28;20037;-27
2022/08/08 08:58:45;;;;;;;4.45;1.95;;;23.70;99.90;;;;;;5029732;28;20072;-27
2022/08/08 09:01:13;;;;;;;4.13;2.15;;;23.70;99.20;;;;;;5046957;28;20037;-27
2022/08/08 09:03:46;;;;;;;3.70;1.83;;;23.70;99.90;;;;;;5020541;28;20039;-27
2022/08/08 09:06:17;;;;;;;4.00;1.95;;;23.60;98.70;;;;;;5033272;28;20037;-27
2022/08/08 09:08:45;;;;;;;4.03;2.10;;;23.30;99.90;;;;;;5030513;28;20123;-27
2022/08/08 09:11:13;;;;;;;4.32;1.95;;;22.90;99.90;;;;;;5024336;28;20068;-27
2022/08/08 09:13:42;;;;;;;3.83;1.65;;;22.80;99.90;;;;;;5027036;28;20041;-27
2022/08/08 09:16:08;;;;;;;3.53;1.88;;;23.10;99.90;;;;;;5028715;28;20041;-27
2022/08/08 09:18:34;;;;;;;3.95;2.10;;;23.60;99.90;;;;;;5026442;28;20037;-27
2022/08/08 09:21:01;;;;;;;1.98;1.70;;;24.30;99.90;;;;;;5022305;28;20045;-27
2022/08/08 09:23:28;;;;;;;2.80;1.52;;;24.40;99.90;;;;;;5023297;28;20033;-27
2022/08/08 09:26:11;;;;;;;4.97;1.70;;;24.20;99.80;;;;;;5031411;28;20041;-27
2022/08/08 09:28:39;;;;;;;2.50;1.45;;;24.40;96.80;;;;;;5027519;28;20037;-27
2022/08/08 09:31:19;;;;;;;1.40;1.30;;;24.10;97.60;;;;;;5024817;28;20113;-27
2022/08/08 09:33:47;;;;;;;2.40;1.35;;;23.80;95.90;;;;;;5031494;28;20037;-27
2022/08/08 09:36:26;;;;;;;2.03;1.48;;;23.50;98.50;;;;;;5029623;28;20042;-27
2022/08/08 09:38:58;;;;;;;2.15;1.50;;;23.80;99.10;;;;;;5033448;28;20037;-27
2022/08/08 09:41:39;;;;;;;2.50;1.48;;;24.40;98.20;;;;;;5034346;28;20155;-28
2022/08/08 09:44:28;;;;;;;4.20;1.80;;;25.20;87.50;;;;;;5033303;28;20052;-28
2022/08/08 09:46:56;;;;;;;4.30;1.75;;;25.40;90.70;;;;;;5031730;28;20042;-28
2022/08/08 09:49:22;;;;;;;4.75;1.83;;;25.20;91.50;;;;;;5033794;28;20491;-28
2022/08/08 09:51:53;;;;;;;2.92;1.50;;;25.10;91.40;;;;;;5048417;28;20041;-28
2022/08/08 09:54:30;;;;;;;4.90;1.77;;;24.90;90.70;;;;;;5031502;28;20406;-28
2022/08/08 09:57:02;;;;;;;3.45;1.80;;;24.70;91.70;;;;;;5027380;28;20051;-27
2022/08/08 09:59:31;;;;;;;3.40;1.50;;;24.40;90.40;;;;;;5032051;28;20029;-28
2022/08/08 10:02:02;;;;;;;3.25;1.60;;;24.00;90.00;;;;;;5047236;28;20041;-27
2022/08/08 10:04:32;;;;;;;4.25;1.55;;;23.70;94.40;;;;;;5046699;28;20073;-27
2022/08/08 10:06:58;;;;;;;3.33;1.48;;;23.50;96.50;;;;;;5033223;28;20124;-27
2022/08/08 10:09:34;;;;;;;3.33;1.55;;;23.30;97.70;;;;;;5028154;28;20052;-27
2022/08/08 10:12:03;;;;;;;2.80;1.67;;;23.10;95.40;;;;;;5026127;28;20038;-27
2022/08/08 10:14:34;;;;;;;3.13;1.65;;;22.90;98.30;;;;;;5029263;28;20124;-27
2022/08/08 10:17:05;;;;;;;3.25;1.52;;;22.80;93.20;;;;;;5031602;28;20029;-27
2022/08/08 10:19:40;;;;;;;2.90;1.52;;;22.80;97.10;;;;;;5026629;28;20562;-27
2022/08/08 10:22:07;;;;;;;3.55;1.60;;;22.70;97.80;;;;;;5046782;28;20072;-27
2022/08/08 10:24:35;;;;;;;3.15;1.60;;;22.60;98.20;;;;;;5031867;28;20037;-27
2022/08/08 10:27:05;;;;;;;4.47;1.70;;;23.00;99.90;;;;;;5025851;28;20030;-27
2022/08/08 10:29:31;;;;;;;4.18;1.88;;;23.80;99.90;;;;;;5030544;28;20048;-28
2022/08/08 10:34:50;;;;;;;2.65;1.25;;;24.90;95.60;;;;;;5031550;28;20103;-28
2022/08/08 10:37:26;;;;;;;3.33;1.30;;;25.70;94.70;;;;;;5028680;28;20079;-28
2022/08/08 10:39:53;;;;;;;4.25;1.55;;;25.90;86.20;;;;;;5028925;28;20041;-28
2022/08/08 10:42:23;;;;;;;2.05;1.25;;;25.70;88.50;;;;;;5030103;28;20111;-28
2022/08/08 10:44:57;;;;;;;2.45;1.13;;;25.30;84.50;;;;;;5030232;28;20045;-28
2022/08/08 10:47:23;;;;;;;3.28;1.20;;;25.00;87.50;;;;;;5009669;28;20538;-28
2022/08/08 10:49:55;;;;;;;2.35;1.23;;;25.00;81.40;;;;;;5026963;28;20065;-28
2022/08/08 10:52:41;;;;;;;3.13;1.17;;;25.40;73.50;;;;;;5012430;28;20044;-28
2022/08/08 10:55:12;;;;;;;1.98;1.00;;;25.90;71.90;;;;;;5007583;28;20120;-28
2022/08/08 10:57:44;;;;;;;3.17;1.40;;;25.90;71.70;;;;;;5012387;28;20090;-28
2022/08/08 11:00:12;;;;;;;2.58;1.10;;;26.00;73.00;;;;;;5023154;28;20037;-28
2022/08/08 11:02:39;;;;;;;3.55;1.30;;;26.60;66.50;;;;;;5030767;28;20044;-28
2022/08/08 11:05:11;;;;;;;4.68;1.15;;;26.90;66.40;;;;;;5037933;28;20120;-28
2022/08/08 11:07:40;;;;;;;2.10;1.08;;;26.90;61.20;;;;;;5027916;28;20498;-28
2022/08/08 11:10:07;;;;;;;3.10;1.27;;;26.70;60.40;;;;;;5012759;28;20456;-28
2022/08/08 11:12:43;;;;;;;2.40;1.00;;;26.40;61.60;;;;;;5024162;28;20049;-28
2022/08/08 11:15:19;;;;;;;1.83;1.00;;;26.20;58.70;;;;;;5025651;28;20030;-28
2022/08/08 11:17:45;;;;;;;3.40;1.40;;;25.90;60.70;;;;;;5026261;28;20048;-28
2022/08/08 11:20:15;;;;;;;2.35;1.00;;;25.70;63.00;;;;;;5046427;28;20184;-28
2022/08/08 11:22:45;;;;;;;2.17;1.40;;;25.40;65.00;;;;;;5031000;28;20045;-27
2022/08/08 11:25:11;;;;;;;4.50;1.20;;;25.30;66.40;;;;;;5024147;28;20034;-27
2022/08/08 11:27:37;;;;;;;2.67;1.20;;;25.10;67.60;;;;;;5031405;28;20418;-27
2022/08/08 11:30:07;;;;;;;3.63;1.70;;;24.90;72.00;;;;;;5023401;28;20037;-29
2022/08/08 11:32:37;;;;;;;2.15;1.05;;;24.70;71.40;;;;;;5027858;28;20041;-27
2022/08/08 11:35:10;;;;;;;1.23;1.00;;;24.60;71.90;;;;;;5032168;28;20035;-27
2022/08/08 11:37:38;;;;;;;1.23;1.00;;;24.50;71.00;;;;;;5029117;28;20038;-27
2022/08/08 11:40:09;;;;;;;2.08;1.23;;;24.50;71.70;;;;;;5030909;28;20124;-27
2022/08/08 11:42:36;;;;;;;2.58;1.00;;;24.60;66.10;;;;;;5027752;28;20041;-27
2022/08/08 11:45:05;;;;;;;2.95;1.25;;;24.60;67.10;;;;;;5026233;28;20038;-26
2022/08/08 11:47:32;;;;;;;2.72;1.30;;;24.60;70.00;;;;;;5022498;28;20094;-27
2022/08/08 11:50:18;;;;;;;3.13;1.10;;;24.70;67.80;;;;;;5031487;28;20033;-28
2022/08/08 11:52:45;;;;;;;3.88;1.40;;;24.80;64.60;;;;;;5003517;28;20117;-28
2022/08/08 11:55:16;;;;;;;3.05;1.15;;;25.00;67.10;;;;;;5034373;28;20029;-27
2022/08/08 11:57:43;;;;;;;1.33;1.10;;;25.10;68.50;;;;;;5019624;28;20430;-28
2022/08/08 12:00:16;;;;;;;2.80;1.35;;;25.40;68.20;;;;;;5032782;28;20060;-28
2022/08/08 12:02:48;;;;;;;;;;;26.30;58.10;;;;;;5015880;28;20100;-28
2022/08/08 12:05:15;;;;;;;3.35;1.27;;;27.00;55.80;;;;;;5032654;28;19963;-27
2022/08/08 12:07:45;;;;;;;1.75;0.90;;;27.20;59.70;;;;;;5032422;28;20095;-27
2022/08/08 12:10:12;;;;;;;4.07;1.05;;;27.10;58.60;;;;;;5023677;28;20106;-27
2022/08/08 12:12:43;;;;;;;1.30;0.90;;;26.80;58.20;;;;;;5030127;28;20061;-27
2022/08/08 12:15:11;;;;;;;4.45;1.23;;;26.50;57.50;;;;;;5030222;28;20487;-27
2022/08/08 12:17:40;;;;;;;3.90;1.25;;;26.10;59.80;;;;;;5032301;28;20116;-28
2022/08/08 12:20:08;;;;;;;1.67;1.20;;;25.80;63.70;;;;;;5029616;28;20119;-27
2022/08/08 12:22:47;;;;;;;2.05;1.15;;;25.60;65.70;;;;;;5038103;28;20479;-27
2022/08/08 12:25:25;;;;;;;1.65;1.05;;;25.40;65.80;;;;;;5029071;28;20585;-27
2022/08/08 12:27:52;;;;;;;3.72;1.42;;;25.30;67.70;;;;;;5025113;28;20034;-27
2022/08/08 12:30:31;;;;;;;3.13;1.13;;;25.30;68.70;;;;;;5034226;28;20037;-26
2022/08/08 12:32:58;;;;;;;2.08;1.05;;;25.20;69.30;;;;;;5022893;28;20034;-27
2022/08/08 12:35:32;;;;;;;2.42;1.20;;;25.30;72.00;;;;;;5041822;28;20038;-26
2022/08/08 12:38:06;;;;;;;1.15;0.95;;;25.30;70.60;;;;;;5038340;28;20037;-26
2022/08/08 12:40:52;;;;;;;1.88;1.00;;;25.30;66.00;;;;;;5024138;28;20109;-26
2022/08/08 12:43:28;;;;;;;2.40;1.08;;;25.40;67.40;;;;;;5023949;28;20576;-27
2022/08/08 12:45:54;;;;;;;2.20;1.10;;;25.50;66.30;;;;;;5031525;28;20060;-27
2022/08/08 12:48:22;;;;;;;2.90;1.10;;;25.70;68.40;;;;;;5025623;28;20037;-27
2022/08/08 12:50:53;;;;;;;4.10;1.10;;;25.80;65.80;;;;;;5028274;28;20030;-27
2022/08/08 12:53:22;;;;;;;2.17;0.90;;;25.80;65.20;;;;;;5037687;28;20049;-33
2022/08/08 12:55:57;;;;;;;2.60;0.93;;;25.80;64.10;;;;;;5036160;28;20033;-27
2022/08/08 12:58:25;;;;;;;0.90;0.80;;;25.80;65.80;;;;;;5024606;28;20044;-26
2022/08/08 13:00:52;;;;;;;1.67;0.93;;;25.90;62.30;;;;;;5036151;28;20488;-27
2022/08/08 13:03:32;;;;;;;1.02;0.80;;;26.00;62.50;;;;;;5040730;28;20033;-27
2022/08/08 13:06:11;;;;;;;1.80;0.90;;;26.10;59.60;;;;;;5046750;28;20029;-26
2022/08/08 13:08:47;;;;;;;3.20;1.10;;;26.40;59.10;;;;;;5031046;28;20041;-27
2022/08/08 13:11:26;;;;;;;1.90;0.93;;;26.40;56.00;;;;;;5038268;28;20038;-27
2022/08/08 13:14:09;;;;;;;2.38;1.02;;;26.50;55.70;;;;;;5021608;28;20034;-27
2022/08/08 13:16:37;;;;;;;0.98;0.82;;;26.80;55.40;;;;;;5032492;28;20125;-27
2022/08/08 13:19:07;;;;;;;2.67;0.88;;;26.90;55.80;;;;;;5035176;28;20034;-27
2022/08/08 13:21:45;;;;;;;0.88;0.88;;;27.20;55.40;;;;;;5053035;22;20080;-88
2022/08/08 13:24:12;;;;;;;1.23;1.00;;;27.60;53.30;;;;;;4996652;28;20509;-88
2022/08/08 13:26:37;;;;;;;1.83;1.17;;;27.80;52.20;;;;;;5005076;28;20573;-88
2022/08/08 13:29:12;;;;;;;1.70;0.85;;;28.70;53.70;;;;;;5000686;28;20062;-88
2022/08/08 13:31:51;;;;;;;1.77;1.00;;;29.80;51.90;;;;;;5025781;28;20042;-89